Providence, Rhode Island
Traffic Map
Current Weather Conditions
Providence, Rhode Island
Scattered Clouds Haze
Scattered Clouds
80°
Feels Like: 82°
Wind Chill: 80° Ceiling: Unl
Heat Index: 82° Visibility: 6mi
Dew Point: 66° Wind: 10mph
Humidity: 62% Direction: 140° (SE)
Pressure: 30.17in Gusts: 0mph
Raw Report DataKPVD 061751Z 14009KT 6SM HZ SCT060 SCT300 27/19 A3017 RMK AO2 SLP215 T02670189 10283 20211 58001
Traffic Incident Summary
Active as of:
Severity:
Category:
InformationThere was an issue retrieving the traffic information for this location. Please try a different location or try again shortly.
Advertisements
Track Severe Weather on mobile